sensor_id;sensor_type;location;lat;lon;timestamp;temperature;humidity
59146;DHT22;44928;53.074;6.646;2023-07-31T00:01:47;15.80;99.90
59146;DHT22;44928;53.074;6.646;2023-07-31T00:04:13;15.90;99.90
59146;DHT22;44928;53.074;6.646;2023-07-31T00:06:38;15.80;99.90
59146;DHT22;44928;53.074;6.646;2023-07-31T00:09:04;15.80;99.90
59146;DHT22;44928;53.074;6.646;2023-07-31T00:11:30;15.80;99.90
59146;DHT22;44928;53.074;6.646;2023-07-31T00:13:56;15.80;99.90
59146;DHT22;44928;53.074;6.646;2023-07-31T00:16:22;15.80;99.90
59146;DHT22;44928;53.074;6.646;2023-07-31T00:18:48;15.80;99.90
59146;DHT22;44928;53.074;6.646;2023-07-31T00:21:13;15.70;99.90
59146;DHT22;44928;53.074;6.646;2023-07-31T00:23:39;15.70;99.90
59146;DHT22;44928;53.074;6.646;2023-07-31T00:26:05;15.70;99.90
59146;DHT22;44928;53.074;6.646;2023-07-31T00:28:31;15.70;99.90
59146;DHT22;44928;53.074;6.646;2023-07-31T00:30:57;15.60;99.90
59146;DHT22;44928;53.074;6.646;2023-07-31T00:33:22;15.60;99.90
59146;DHT22;44928;53.074;6.646;2023-07-31T00:35:48;15.60;99.90
59146;DHT22;44928;53.074;6.646;2023-07-31T00:38:14;15.60;99.90
59146;DHT22;44928;53.074;6.646;2023-07-31T00:40:40;15.60;99.90
59146;DHT22;44928;53.074;6.646;2023-07-31T00:43:06;15.60;99.90
59146;DHT22;44928;53.074;6.646;2023-07-31T00:45:32;15.60;99.90
59146;DHT22;44928;53.074;6.646;2023-07-31T00:47:58;15.60;99.90
59146;DHT22;44928;53.074;6.646;2023-07-31T00:50:25;15.50;99.90
59146;DHT22;44928;53.074;6.646;2023-07-31T00:52:51;15.50;99.90
59146;DHT22;44928;53.074;6.646;2023-07-31T00:55:17;15.50;99.90
59146;DHT22;44928;53.074;6.646;2023-07-31T00:57:45;15.60;99.90
59146;DHT22;44928;53.074;6.646;2023-07-31T01:00:11;15.50;99.90
59146;DHT22;44928;53.074;6.646;2023-07-31T01:02:37;15.60;99.90
59146;DHT22;44928;53.074;6.646;2023-07-31T01:05:04;15.60;99.90
59146;DHT22;44928;53.074;6.646;2023-07-31T01:07:52;15.50;99.90
59146;DHT22;44928;53.074;6.646;2023-07-31T01:10:37;15.50;99.90
59146;DHT22;44928;53.074;6.646;2023-07-31T01:13:05;15.50;99.90
59146;DHT22;44928;53.074;6.646;2023-07-31T01:15:31;15.50;99.90
59146;DHT22;44928;53.074;6.646;2023-07-31T01:17:57;15.50;99.90
59146;DHT22;44928;53.074;6.646;2023-07-31T01:20:24;15.50;99.90
59146;DHT22;44928;53.074;6.646;2023-07-31T01:28:28;15.50;99.90
59146;DHT22;44928;53.074;6.646;2023-07-31T01:30:58;15.50;99.90
59146;DHT22;44928;53.074;6.646;2023-07-31T01:33:25;15.50;99.90
59146;DHT22;44928;53.074;6.646;2023-07-31T01:35:53;15.40;99.90
59146;DHT22;44928;53.074;6.646;2023-07-31T01:38:22;15.50;99.90
59146;DHT22;44928;53.074;6.646;2023-07-31T01:40:52;15.50;99.90
59146;DHT22;44928;53.074;6.646;2023-07-31T01:43:19;15.50;99.90
59146;DHT22;44928;53.074;6.646;2023-07-31T01:45:45;15.40;99.90
59146;DHT22;44928;53.074;6.646;2023-07-31T01:48:10;15.40;99.90
59146;DHT22;44928;53.074;6.646;2023-07-31T01:50:36;15.40;99.90
59146;DHT22;44928;53.074;6.646;2023-07-31T01:53:02;15.40;99.90
59146;DHT22;44928;53.074;6.646;2023-07-31T01:55:28;15.50;99.90
59146;DHT22;44928;53.074;6.646;2023-07-31T01:57:54;15.50;99.90
59146;DHT22;44928;53.074;6.646;2023-07-31T02:00:20;15.50;99.90
59146;DHT22;44928;53.074;6.646;2023-07-31T02:02:46;15.40;99.90
59146;DHT22;44928;53.074;6.646;2023-07-31T02:05:11;15.50;99.90
59146;DHT22;44928;53.074;6.646;2023-07-31T02:07:37;15.50;99.90
59146;DHT22;44928;53.074;6.646;2023-07-31T02:10:03;15.50;99.90
59146;DHT22;44928;53.074;6.646;2023-07-31T02:12:29;15.50;99.90
59146;DHT22;44928;53.074;6.646;2023-07-31T02:14:57;15.50;99.90
59146;DHT22;44928;53.074;6.646;2023-07-31T02:17:23;15.40;99.90
59146;DHT22;44928;53.074;6.646;2023-07-31T02:19:49;15.40;99.90
59146;DHT22;44928;53.074;6.646;2023-07-31T02:22:15;15.40;99.90
59146;DHT22;44928;53.074;6.646;2023-07-31T02:24:40;15.40;99.90
59146;DHT22;44928;53.074;6.646;2023-07-31T02:27:06;15.40;99.90
59146;DHT22;44928;53.074;6.646;2023-07-31T02:29:32;15.40;99.90
59146;DHT22;44928;53.074;6.646;2023-07-31T02:31:58;15.40;99.90
59146;DHT22;44928;53.074;6.646;2023-07-31T02:34:24;15.40;99.90
59146;DHT22;44928;53.074;6.646;2023-07-31T02:36:50;15.40;99.90
59146;DHT22;44928;53.074;6.646;2023-07-31T02:39:16;15.40;99.90
59146;DHT22;44928;53.074;6.646;2023-07-31T02:41:42;15.40;99.90
59146;DHT22;44928;53.074;6.646;2023-07-31T02:44:08;15.40;99.90
59146;DHT22;44928;53.074;6.646;2023-07-31T02:46:34;15.40;99.90
59146;DHT22;44928;53.074;6.646;2023-07-31T02:48:59;15.40;99.90
59146;DHT22;44928;53.074;6.646;2023-07-31T02:51:25;15.40;99.90
59146;DHT22;44928;53.074;6.646;2023-07-31T02:53:51;15.40;99.90
59146;DHT22;44928;53.074;6.646;2023-07-31T02:56:17;15.50;99.90
59146;DHT22;44928;53.074;6.646;2023-07-31T02:58:43;15.40;99.90
59146;DHT22;44928;53.074;6.646;2023-07-31T03:01:08;15.40;99.90
59146;DHT22;44928;53.074;6.646;2023-07-31T03:03:34;15.50;99.90
59146;DHT22;44928;53.074;6.646;2023-07-31T03:06:00;15.40;99.90
59146;DHT22;44928;53.074;6.646;2023-07-31T03:08:26;15.50;99.90
59146;DHT22;44928;53.074;6.646;2023-07-31T03:10:52;15.50;99.90
59146;DHT22;44928;53.074;6.646;2023-07-31T03:13:17;15.50;99.90
59146;DHT22;44928;53.074;6.646;2023-07-31T03:15:43;15.50;99.90
59146;DHT22;44928;53.074;6.646;2023-07-31T03:18:09;15.50;99.90
59146;DHT22;44928;53.074;6.646;2023-07-31T03:20:35;15.50;99.90
59146;DHT22;44928;53.074;6.646;2023-07-31T03:23:01;15.50;99.90
59146;DHT22;44928;53.074;6.646;2023-07-31T03:25:26;15.50;99.90
59146;DHT22;44928;53.074;6.646;2023-07-31T03:27:52;15.50;99.90
59146;DHT22;44928;53.074;6.646;2023-07-31T03:30:18;15.50;99.90
59146;DHT22;44928;53.074;6.646;2023-07-31T03:32:44;15.60;99.90
59146;DHT22;44928;53.074;6.646;2023-07-31T03:35:10;15.60;99.90
59146;DHT22;44928;53.074;6.646;2023-07-31T03:37:35;15.60;99.90
59146;DHT22;44928;53.074;6.646;2023-07-31T03:40:01;15.50;99.90
59146;DHT22;44928;53.074;6.646;2023-07-31T03:42:27;15.60;99.90
59146;DHT22;44928;53.074;6.646;2023-07-31T03:44:53;15.60;99.90
59146;DHT22;44928;53.074;6.646;2023-07-31T03:47:19;15.60;99.90
59146;DHT22;44928;53.074;6.646;2023-07-31T03:49:45;15.60;99.90
59146;DHT22;44928;53.074;6.646;2023-07-31T03:52:11;15.60;99.90
59146;DHT22;44928;53.074;6.646;2023-07-31T03:54:36;15.60;99.90
59146;DHT22;44928;53.074;6.646;2023-07-31T03:57:02;15.60;99.90
59146;DHT22;44928;53.074;6.646;2023-07-31T03:59:28;15.60;99.90
59146;DHT22;44928;53.074;6.646;2023-07-31T04:01:54;15.60;99.90
59146;DHT22;44928;53.074;6.646;2023-07-31T04:04:20;15.60;99.90
59146;DHT22;44928;53.074;6.646;2023-07-31T04:06:46;15.70;99.90
59146;DHT22;44928;53.074;6.646;2023-07-31T04:09:12;15.70;99.90
59146;DHT22;44928;53.074;6.646;2023-07-31T04:11:38;15.70;99.90
59146;DHT22;44928;53.074;6.646;2023-07-31T04:14:04;15.70;99.90
59146;DHT22;44928;53.074;6.646;2023-07-31T04:16:30;15.70;99.90
59146;DHT22;44928;53.074;6.646;2023-07-31T04:18:56;15.70;99.90
59146;DHT22;44928;53.074;6.646;2023-07-31T04:21:22;15.70;99.90
59146;DHT22;44928;53.074;6.646;2023-07-31T04:23:48;15.70;99.90
59146;DHT22;44928;53.074;6.646;2023-07-31T04:26:14;15.80;99.90
59146;DHT22;44928;53.074;6.646;2023-07-31T04:28:39;15.80;99.90
59146;DHT22;44928;53.074;6.646;2023-07-31T04:31:05;15.80;99.90
59146;DHT22;44928;53.074;6.646;2023-07-31T04:33:31;15.80;99.90
59146;DHT22;44928;53.074;6.646;2023-07-31T04:35:58;15.80;99.90
59146;DHT22;44928;53.074;6.646;2023-07-31T04:38:24;15.80;99.90
59146;DHT22;44928;53.074;6.646;2023-07-31T04:40:50;15.80;99.90
59146;DHT22;44928;53.074;6.646;2023-07-31T04:43:15;15.80;99.90
59146;DHT22;44928;53.074;6.646;2023-07-31T04:45:48;15.80;99.90
59146;DHT22;44928;53.074;6.646;2023-07-31T04:48:14;15.80;99.90
59146;DHT22;44928;53.074;6.646;2023-07-31T04:50:40;15.80;99.90
59146;DHT22;44928;53.074;6.646;2023-07-31T04:53:06;15.70;99.90
59146;DHT22;44928;53.074;6.646;2023-07-31T04:55:32;15.80;99.90
59146;DHT22;44928;53.074;6.646;2023-07-31T04:57:59;15.80;99.90
59146;DHT22;44928;53.074;6.646;2023-07-31T05:00:25;15.80;99.90
59146;DHT22;44928;53.074;6.646;2023-07-31T05:02:50;15.80;99.90
59146;DHT22;44928;53.074;6.646;2023-07-31T05:05:16;15.80;99.90
59146;DHT22;44928;53.074;6.646;2023-07-31T05:07:42;15.80;99.90
59146;DHT22;44928;53.074;6.646;2023-07-31T05:10:08;15.80;99.90
59146;DHT22;44928;53.074;6.646;2023-07-31T05:12:34;15.80;99.90
59146;DHT22;44928;53.074;6.646;2023-07-31T05:15:00;15.80;99.90
59146;DHT22;44928;53.074;6.646;2023-07-31T05:17:26;15.90;99.90
59146;DHT22;44928;53.074;6.646;2023-07-31T05:19:51;15.80;99.90
59146;DHT22;44928;53.074;6.646;2023-07-31T05:22:17;15.80;99.90
59146;DHT22;44928;53.074;6.646;2023-07-31T05:24:43;15.80;99.90
59146;DHT22;44928;53.074;6.646;2023-07-31T05:27:09;15.80;99.90
59146;DHT22;44928;53.074;6.646;2023-07-31T05:29:35;15.80;99.90
59146;DHT22;44928;53.074;6.646;2023-07-31T05:32:01;15.80;99.90
59146;DHT22;44928;53.074;6.646;2023-07-31T05:34:27;15.80;99.90
59146;DHT22;44928;53.074;6.646;2023-07-31T05:36:53;15.80;99.90
59146;DHT22;44928;53.074;6.646;2023-07-31T05:39:19;15.80;99.90
59146;DHT22;44928;53.074;6.646;2023-07-31T05:41:45;15.90;99.90
59146;DHT22;44928;53.074;6.646;2023-07-31T05:44:11;15.90;99.90
59146;DHT22;44928;53.074;6.646;2023-07-31T05:46:37;15.90;99.90
59146;DHT22;44928;53.074;6.646;2023-07-31T05:49:03;15.90;99.90
59146;DHT22;44928;53.074;6.646;2023-07-31T05:51:29;15.90;99.90
59146;DHT22;44928;53.074;6.646;2023-07-31T05:53:54;15.90;99.90
59146;DHT22;44928;53.074;6.646;2023-07-31T05:56:20;16.00;99.90
59146;DHT22;44928;53.074;6.646;2023-07-31T05:58:46;16.00;99.90
59146;DHT22;44928;53.074;6.646;2023-07-31T06:01:12;16.00;99.90
59146;DHT22;44928;53.074;6.646;2023-07-31T06:03:38;16.00;99.90
59146;DHT22;44928;53.074;6.646;2023-07-31T06:06:04;16.00;99.90
59146;DHT22;44928;53.074;6.646;2023-07-31T06:08:31;16.00;99.90
59146;DHT22;44928;53.074;6.646;2023-07-31T06:10:56;16.10;99.90
59146;DHT22;44928;53.074;6.646;2023-07-31T06:13:22;16.10;99.90
59146;DHT22;44928;53.074;6.646;2023-07-31T06:15:48;16.10;99.90
59146;DHT22;44928;53.074;6.646;2023-07-31T06:18:14;16.20;99.90
59146;DHT22;44928;53.074;6.646;2023-07-31T06:20:40;16.30;99.90
59146;DHT22;44928;53.074;6.646;2023-07-31T06:23:06;16.30;99.90
59146;DHT22;44928;53.074;6.646;2023-07-31T06:25:32;16.40;99.90
59146;DHT22;44928;53.074;6.646;2023-07-31T06:27:57;16.50;99.90
59146;DHT22;44928;53.074;6.646;2023-07-31T06:30:23;16.50;99.90
59146;DHT22;44928;53.074;6.646;2023-07-31T06:32:49;16.60;99.90
59146;DHT22;44928;53.074;6.646;2023-07-31T06:35:15;16.60;99.90
59146;DHT22;44928;53.074;6.646;2023-07-31T06:37:41;16.60;99.90
59146;DHT22;44928;53.074;6.646;2023-07-31T06:40:09;16.60;99.90
59146;DHT22;44928;53.074;6.646;2023-07-31T06:42:35;16.60;99.90
59146;DHT22;44928;53.074;6.646;2023-07-31T06:45:02;16.60;99.90
59146;DHT22;44928;53.074;6.646;2023-07-31T06:47:28;16.70;99.90
59146;DHT22;44928;53.074;6.646;2023-07-31T06:49:54;16.70;99.90
59146;DHT22;44928;53.074;6.646;2023-07-31T06:52:20;16.70;99.90
59146;DHT22;44928;53.074;6.646;2023-07-31T06:55:01;16.70;99.90
59146;DHT22;44928;53.074;6.646;2023-07-31T06:57:27;16.70;99.90
59146;DHT22;44928;53.074;6.646;2023-07-31T06:59:53;16.80;99.90
59146;DHT22;44928;53.074;6.646;2023-07-31T07:02:19;16.80;99.90
59146;DHT22;44928;53.074;6.646;2023-07-31T07:04:45;16.80;99.90
59146;DHT22;44928;53.074;6.646;2023-07-31T07:07:11;16.80;99.90
59146;DHT22;44928;53.074;6.646;2023-07-31T07:09:36;16.80;99.90
59146;DHT22;44928;53.074;6.646;2023-07-31T07:12:02;16.80;99.90
59146;DHT22;44928;53.074;6.646;2023-07-31T07:14:28;16.90;99.90
59146;DHT22;44928;53.074;6.646;2023-07-31T07:16:54;16.80;99.90
59146;DHT22;44928;53.074;6.646;2023-07-31T07:19:20;16.80;99.90
59146;DHT22;44928;53.074;6.646;2023-07-31T07:21:46;16.90;99.90
59146;DHT22;44928;53.074;6.646;2023-07-31T07:24:11;16.90;99.90
59146;DHT22;44928;53.074;6.646;2023-07-31T07:26:37;16.80;99.90
59146;DHT22;44928;53.074;6.646;2023-07-31T07:29:03;16.90;99.90
59146;DHT22;44928;53.074;6.646;2023-07-31T07:31:29;16.80;99.90
59146;DHT22;44928;53.074;6.646;2023-07-31T07:33:55;16.80;99.90
59146;DHT22;44928;53.074;6.646;2023-07-31T07:36:21;16.80;99.90
59146;DHT22;44928;53.074;6.646;2023-07-31T07:38:47;16.80;99.90
59146;DHT22;44928;53.074;6.646;2023-07-31T07:41:12;16.80;99.90
59146;DHT22;44928;53.074;6.646;2023-07-31T07:43:38;16.80;99.90
59146;DHT22;44928;53.074;6.646;2023-07-31T07:46:04;16.80;99.90
59146;DHT22;44928;53.074;6.646;2023-07-31T07:48:30;16.80;99.90
59146;DHT22;44928;53.074;6.646;2023-07-31T07:50:55;16.70;99.90
59146;DHT22;44928;53.074;6.646;2023-07-31T07:53:21;16.70;99.90
59146;DHT22;44928;53.074;6.646;2023-07-31T07:55:47;16.70;99.90
59146;DHT22;44928;53.074;6.646;2023-07-31T07:58:13;16.70;99.90
59146;DHT22;44928;53.074;6.646;2023-07-31T08:00:39;16.70;99.90
59146;DHT22;44928;53.074;6.646;2023-07-31T08:03:05;16.70;99.90
59146;DHT22;44928;53.074;6.646;2023-07-31T08:05:31;16.70;99.90
59146;DHT22;44928;53.074;6.646;2023-07-31T08:07:59;16.70;99.90
59146;DHT22;44928;53.074;6.646;2023-07-31T08:10:25;16.60;99.90
59146;DHT22;44928;53.074;6.646;2023-07-31T08:12:51;16.70;99.90
59146;DHT22;44928;53.074;6.646;2023-07-31T08:15:17;16.60;99.90
59146;DHT22;44928;53.074;6.646;2023-07-31T08:17:42;16.60;99.90
59146;DHT22;44928;53.074;6.646;2023-07-31T08:20:09;16.60;99.90
59146;DHT22;44928;53.074;6.646;2023-07-31T08:22:35;16.60;99.90
59146;DHT22;44928;53.074;6.646;2023-07-31T08:25:01;16.60;99.90
59146;DHT22;44928;53.074;6.646;2023-07-31T08:27:26;16.70;99.90
59146;DHT22;44928;53.074;6.646;2023-07-31T08:29:52;16.70;99.90
59146;DHT22;44928;53.074;6.646;2023-07-31T08:32:18;16.70;99.90
59146;DHT22;44928;53.074;6.646;2023-07-31T08:34:44;16.70;99.90
59146;DHT22;44928;53.074;6.646;2023-07-31T08:37:13;16.70;99.90
59146;DHT22;44928;53.074;6.646;2023-07-31T08:39:39;16.70;99.90
59146;DHT22;44928;53.074;6.646;2023-07-31T08:42:08;16.80;99.90
59146;DHT22;44928;53.074;6.646;2023-07-31T08:44:35;16.80;99.90
59146;DHT22;44928;53.074;6.646;2023-07-31T08:47:01;16.80;99.90
59146;DHT22;44928;53.074;6.646;2023-07-31T08:49:27;16.80;99.90
59146;DHT22;44928;53.074;6.646;2023-07-31T08:51:55;16.90;99.90
59146;DHT22;44928;53.074;6.646;2023-07-31T08:54:25;16.90;99.90
59146;DHT22;44928;53.074;6.646;2023-07-31T08:56:56;16.90;99.90
59146;DHT22;44928;53.074;6.646;2023-07-31T08:59:24;17.00;99.90
59146;DHT22;44928;53.074;6.646;2023-07-31T09:01:52;17.00;99.90
59146;DHT22;44928;53.074;6.646;2023-07-31T09:04:19;17.00;99.90
59146;DHT22;44928;53.074;6.646;2023-07-31T09:06:47;17.10;99.90
59146;DHT22;44928;53.074;6.646;2023-07-31T09:09:14;17.10;99.90
59146;DHT22;44928;53.074;6.646;2023-07-31T09:11:40;17.10;99.90
59146;DHT22;44928;53.074;6.646;2023-07-31T09:14:08;17.20;99.90
59146;DHT22;44928;53.074;6.646;2023-07-31T09:16:35;17.20;99.90
59146;DHT22;44928;53.074;6.646;2023-07-31T09:19:00;17.20;99.90
59146;DHT22;44928;53.074;6.646;2023-07-31T09:21:30;17.30;99.90
59146;DHT22;44928;53.074;6.646;2023-07-31T09:23:56;17.30;99.90
59146;DHT22;44928;53.074;6.646;2023-07-31T09:26:33;17.30;99.90
59146;DHT22;44928;53.074;6.646;2023-07-31T09:29:01;17.30;99.90
59146;DHT22;44928;53.074;6.646;2023-07-31T09:31:53;17.40;99.90
59146;DHT22;44928;53.074;6.646;2023-07-31T09:34:20;17.40;99.90
59146;DHT22;44928;53.074;6.646;2023-07-31T09:36:49;17.40;99.90
59146;DHT22;44928;53.074;6.646;2023-07-31T09:39:17;17.40;99.90
59146;DHT22;44928;53.074;6.646;2023-07-31T09:41:54;17.50;99.90
59146;DHT22;44928;53.074;6.646;2023-07-31T09:44:20;17.50;99.90
59146;DHT22;44928;53.074;6.646;2023-07-31T09:46:46;17.60;99.90
59146;DHT22;44928;53.074;6.646;2023-07-31T09:49:14;17.60;99.90
59146;DHT22;44928;53.074;6.646;2023-07-31T09:51:42;17.60;99.90
59146;DHT22;44928;53.074;6.646;2023-07-31T09:54:14;17.70;99.90
59146;DHT22;44928;53.074;6.646;2023-07-31T09:56:43;17.70;99.90
59146;DHT22;44928;53.074;6.646;2023-07-31T09:59:18;17.70;99.90
59146;DHT22;44928;53.074;6.646;2023-07-31T10:01:46;17.70;99.90
59146;DHT22;44928;53.074;6.646;2023-07-31T10:04:14;17.80;99.90
59146;DHT22;44928;53.074;6.646;2023-07-31T10:06:43;17.90;99.90
59146;DHT22;44928;53.074;6.646;2023-07-31T10:09:11;17.90;99.90
59146;DHT22;44928;53.074;6.646;2023-07-31T10:11:47;18.00;99.90
59146;DHT22;44928;53.074;6.646;2023-07-31T10:14:20;18.00;99.90
59146;DHT22;44928;53.074;6.646;2023-07-31T10:16:47;18.10;99.90
59146;DHT22;44928;53.074;6.646;2023-07-31T10:19:14;18.00;99.90
59146;DHT22;44928;53.074;6.646;2023-07-31T10:21:40;18.00;99.90
59146;DHT22;44928;53.074;6.646;2023-07-31T10:24:08;18.10;99.90
59146;DHT22;44928;53.074;6.646;2023-07-31T10:26:35;18.00;99.90
59146;DHT22;44928;53.074;6.646;2023-07-31T10:29:03;18.00;99.90
59146;DHT22;44928;53.074;6.646;2023-07-31T10:31:30;18.10;99.90
59146;DHT22;44928;53.074;6.646;2023-07-31T10:33:57;18.10;99.90
59146;DHT22;44928;53.074;6.646;2023-07-31T10:36:24;18.10;99.90
59146;DHT22;44928;53.074;6.646;2023-07-31T10:38:51;18.20;99.90
59146;DHT22;44928;53.074;6.646;2023-07-31T10:41:17;18.10;99.90
59146;DHT22;44928;53.074;6.646;2023-07-31T10:43:45;18.20;99.90
59146;DHT22;44928;53.074;6.646;2023-07-31T10:46:12;18.20;99.90
59146;DHT22;44928;53.074;6.646;2023-07-31T10:48:40;18.20;99.90
59146;DHT22;44928;53.074;6.646;2023-07-31T10:51:11;18.20;99.90
59146;DHT22;44928;53.074;6.646;2023-07-31T10:53:41;18.30;99.90
59146;DHT22;44928;53.074;6.646;2023-07-31T10:56:09;18.30;99.90
59146;DHT22;44928;53.074;6.646;2023-07-31T10:58:36;18.40;99.90
59146;DHT22;44928;53.074;6.646;2023-07-31T11:01:04;18.40;99.90
59146;DHT22;44928;53.074;6.646;2023-07-31T11:03:50;18.40;99.90
59146;DHT22;44928;53.074;6.646;2023-07-31T11:06:20;18.40;99.90
59146;DHT22;44928;53.074;6.646;2023-07-31T11:08:50;18.40;99.90
59146;DHT22;44928;53.074;6.646;2023-07-31T11:11:17;18.40;99.90
59146;DHT22;44928;53.074;6.646;2023-07-31T11:13:48;18.40;99.90
59146;DHT22;44928;53.074;6.646;2023-07-31T11:16:20;18.40;99.90
59146;DHT22;44928;53.074;6.646;2023-07-31T11:18:47;18.40;99.90
59146;DHT22;44928;53.074;6.646;2023-07-31T11:21:15;18.40;99.90
59146;DHT22;44928;53.074;6.646;2023-07-31T11:23:46;18.40;99.90
59146;DHT22;44928;53.074;6.646;2023-07-31T11:26:45;18.40;99.90
59146;DHT22;44928;53.074;6.646;2023-07-31T11:29:18;18.50;99.90
59146;DHT22;44928;53.074;6.646;2023-07-31T11:31:44;18.40;99.90
59146;DHT22;44928;53.074;6.646;2023-07-31T11:34:10;18.40;99.90
59146;DHT22;44928;53.074;6.646;2023-07-31T11:36:36;18.40;99.90
59146;DHT22;44928;53.074;6.646;2023-07-31T11:39:09;18.30;99.90
59146;DHT22;44928;53.074;6.646;2023-07-31T11:41:35;18.20;99.90
59146;DHT22;44928;53.074;6.646;2023-07-31T11:44:01;18.10;99.90
59146;DHT22;44928;53.074;6.646;2023-07-31T11:46:30;18.20;99.90
59146;DHT22;44928;53.074;6.646;2023-07-31T11:49:00;18.20;99.90
59146;DHT22;44928;53.074;6.646;2023-07-31T11:51:27;18.20;99.90
59146;DHT22;44928;53.074;6.646;2023-07-31T11:53:57;18.20;99.90
59146;DHT22;44928;53.074;6.646;2023-07-31T11:56:24;18.30;99.90
59146;DHT22;44928;53.074;6.646;2023-07-31T11:58:58;18.40;99.90
59146;DHT22;44928;53.074;6.646;2023-07-31T12:01:25;18.60;99.90
59146;DHT22;44928;53.074;6.646;2023-07-31T12:03:56;18.70;99.90
59146;DHT22;44928;53.074;6.646;2023-07-31T12:06:32;18.80;99.90
59146;DHT22;44928;53.074;6.646;2023-07-31T12:09:04;19.00;99.90
59146;DHT22;44928;53.074;6.646;2023-07-31T12:11:30;19.10;99.90
59146;DHT22;44928;53.074;6.646;2023-07-31T12:13:56;19.10;99.90
59146;DHT22;44928;53.074;6.646;2023-07-31T12:16:26;19.20;99.90
59146;DHT22;44928;53.074;6.646;2023-07-31T12:18:52;19.20;99.90
59146;DHT22;44928;53.074;6.646;2023-07-31T12:21:19;19.20;99.90
59146;DHT22;44928;53.074;6.646;2023-07-31T12:23:45;19.30;99.90
59146;DHT22;44928;53.074;6.646;2023-07-31T12:26:12;19.30;99.90
59146;DHT22;44928;53.074;6.646;2023-07-31T12:28:45;19.30;99.90
59146;DHT22;44928;53.074;6.646;2023-07-31T12:31:19;19.30;99.90
59146;DHT22;44928;53.074;6.646;2023-07-31T12:33:47;19.30;99.90
59146;DHT22;44928;53.074;6.646;2023-07-31T12:36:17;19.20;99.90
59146;DHT22;44928;53.074;6.646;2023-07-31T12:38:44;19.20;99.90
59146;DHT22;44928;53.074;6.646;2023-07-31T12:41:10;19.10;99.90
59146;DHT22;44928;53.074;6.646;2023-07-31T12:43:38;19.00;99.90
59146;DHT22;44928;53.074;6.646;2023-07-31T12:46:06;19.00;99.90
59146;DHT22;44928;53.074;6.646;2023-07-31T12:48:34;18.90;99.90
59146;DHT22;44928;53.074;6.646;2023-07-31T12:51:00;18.90;99.90
59146;DHT22;44928;53.074;6.646;2023-07-31T12:53:26;18.90;99.90
59146;DHT22;44928;53.074;6.646;2023-07-31T12:55:51;18.80;99.90
59146;DHT22;44928;53.074;6.646;2023-07-31T12:58:17;18.70;99.90
59146;DHT22;44928;53.074;6.646;2023-07-31T13:00:43;18.70;99.90
59146;DHT22;44928;53.074;6.646;2023-07-31T13:03:09;18.70;99.90
59146;DHT22;44928;53.074;6.646;2023-07-31T13:05:37;18.60;99.90
59146;DHT22;44928;53.074;6.646;2023-07-31T13:08:03;18.60;99.90
59146;DHT22;44928;53.074;6.646;2023-07-31T13:10:29;18.60;99.90
59146;DHT22;44928;53.074;6.646;2023-07-31T13:12:56;18.60;99.90
59146;DHT22;44928;53.074;6.646;2023-07-31T13:15:22;18.70;99.90
59146;DHT22;44928;53.074;6.646;2023-07-31T13:17:47;18.60;99.90
59146;DHT22;44928;53.074;6.646;2023-07-31T13:20:13;18.60;99.90
59146;DHT22;44928;53.074;6.646;2023-07-31T13:22:39;18.70;99.90
59146;DHT22;44928;53.074;6.646;2023-07-31T13:25:06;18.70;99.90
59146;DHT22;44928;53.074;6.646;2023-07-31T13:27:32;18.70;99.90
59146;DHT22;44928;53.074;6.646;2023-07-31T13:29:58;18.70;99.90
59146;DHT22;44928;53.074;6.646;2023-07-31T13:32:23;18.80;99.90
59146;DHT22;44928;53.074;6.646;2023-07-31T13:34:49;18.80;99.90
59146;DHT22;44928;53.074;6.646;2023-07-31T13:37:25;18.80;99.90
59146;DHT22;44928;53.074;6.646;2023-07-31T13:39:51;18.90;99.90
59146;DHT22;44928;53.074;6.646;2023-07-31T13:42:17;18.90;99.90
59146;DHT22;44928;53.074;6.646;2023-07-31T13:44:44;18.90;99.90
59146;DHT22;44928;53.074;6.646;2023-07-31T13:47:13;18.90;99.90
59146;DHT22;44928;53.074;6.646;2023-07-31T13:49:38;18.90;99.90
59146;DHT22;44928;53.074;6.646;2023-07-31T13:52:05;18.90;99.90
59146;DHT22;44928;53.074;6.646;2023-07-31T13:54:31;19.00;99.90
59146;DHT22;44928;53.074;6.646;2023-07-31T13:56:57;19.00;99.90
59146;DHT22;44928;53.074;6.646;2023-07-31T13:59:22;19.10;99.90
59146;DHT22;44928;53.074;6.646;2023-07-31T14:01:48;19.10;99.90
59146;DHT22;44928;53.074;6.646;2023-07-31T14:04:15;19.20;99.90
59146;DHT22;44928;53.074;6.646;2023-07-31T14:06:41;19.20;99.90
59146;DHT22;44928;53.074;6.646;2023-07-31T14:09:07;19.30;99.90
59146;DHT22;44928;53.074;6.646;2023-07-31T14:11:33;19.30;99.90
59146;DHT22;44928;53.074;6.646;2023-07-31T14:13:59;19.40;99.90
59146;DHT22;44928;53.074;6.646;2023-07-31T14:16:30;19.40;99.90
59146;DHT22;44928;53.074;6.646;2023-07-31T14:18:55;19.40;99.90
59146;DHT22;44928;53.074;6.646;2023-07-31T14:21:21;19.40;99.90
59146;DHT22;44928;53.074;6.646;2023-07-31T14:23:47;19.50;99.90
59146;DHT22;44928;53.074;6.646;2023-07-31T14:26:13;19.40;99.90
59146;DHT22;44928;53.074;6.646;2023-07-31T14:28:39;19.40;99.90
59146;DHT22;44928;53.074;6.646;2023-07-31T14:31:05;19.40;99.90
59146;DHT22;44928;53.074;6.646;2023-07-31T14:33:31;19.40;99.90
59146;DHT22;44928;53.074;6.646;2023-07-31T14:35:56;19.40;99.90
59146;DHT22;44928;53.074;6.646;2023-07-31T14:38:22;19.40;99.90
59146;DHT22;44928;53.074;6.646;2023-07-31T14:40:48;19.40;99.90
59146;DHT22;44928;53.074;6.646;2023-07-31T14:43:15;19.40;99.90
59146;DHT22;44928;53.074;6.646;2023-07-31T14:45:41;19.40;99.90
59146;DHT22;44928;53.074;6.646;2023-07-31T14:48:06;19.40;99.90
59146;DHT22;44928;53.074;6.646;2023-07-31T14:50:32;19.40;99.90
59146;DHT22;44928;53.074;6.646;2023-07-31T14:52:58;19.50;99.90
59146;DHT22;44928;53.074;6.646;2023-07-31T14:55:25;19.50;99.90
59146;DHT22;44928;53.074;6.646;2023-07-31T14:57:51;19.50;99.90
59146;DHT22;44928;53.074;6.646;2023-07-31T15:00:16;19.50;99.90
59146;DHT22;44928;53.074;6.646;2023-07-31T15:02:42;19.40;99.90
59146;DHT22;44928;53.074;6.646;2023-07-31T15:05:08;19.40;99.90
59146;DHT22;44928;53.074;6.646;2023-07-31T15:07:34;19.40;99.90
59146;DHT22;44928;53.074;6.646;2023-07-31T15:10:02;19.40;99.90
59146;DHT22;44928;53.074;6.646;2023-07-31T15:12:28;19.40;99.90
59146;DHT22;44928;53.074;6.646;2023-07-31T15:14:54;19.40;99.90
59146;DHT22;44928;53.074;6.646;2023-07-31T15:17:20;19.40;99.90
59146;DHT22;44928;53.074;6.646;2023-07-31T15:19:46;19.40;99.90
59146;DHT22;44928;53.074;6.646;2023-07-31T15:22:12;19.40;99.90
59146;DHT22;44928;53.074;6.646;2023-07-31T15:24:38;19.40;99.90
59146;DHT22;44928;53.074;6.646;2023-07-31T15:27:03;19.40;99.90
59146;DHT22;44928;53.074;6.646;2023-07-31T15:29:39;19.40;99.90
59146;DHT22;44928;53.074;6.646;2023-07-31T15:32:05;19.30;99.90
59146;DHT22;44928;53.074;6.646;2023-07-31T15:34:31;19.30;99.90